Time;durP1;ratioP1;P1;durP2;ratioP2;P2;SDS_P1;SDS_P2;PMS_P1;PMS_P2;Temp;Humidity;BMP_temperature;BMP_pressure;BME280_temperature;BME280_humidity;BME280_pressure;Samples;Min_cycle;Max_cycle;Signal;HPM_P1;HPM_P2
2022/10/10 00:00:57;;;;;;;;;12.00;12.00;;;;;18.22;73.80;100123.50;4605890;28;2775316;-71
2022/10/10 00:03:25;;;;;;;;;11.33;11.33;;;;;18.30;73.71;100118.13;4632062;28;2808599;-70
2022/10/10 00:05:52;;;;;;;;;11.33;10.67;;;;;18.24;73.68;100103.22;4612250;28;2786789;-71
2022/10/10 00:08:19;;;;;;;;;13.20;12.60;;;;;18.32;73.56;100102.25;4631071;28;3535695;-71
2022/10/10 00:10:45;;;;;;;;;13.00;12.33;;;;;18.38;73.74;100110.13;4602739;28;3523210;-70
2022/10/10 00:13:13;;;;;;;;;13.20;12.40;;;;;18.34;73.96;100117.22;4607441;28;3539853;-71
2022/10/10 00:15:39;;;;;;;;;12.00;12.00;;;;;18.38;73.56;100108.38;4595569;28;3538843;-71
2022/10/10 00:18:05;;;;;;;;;12.00;12.00;;;;;18.46;74.07;100114.47;4630411;28;1811872;-71
2022/10/10 00:20:32;;;;;;;;;15.33;12.67;;;;;18.48;73.92;100114.44;4595271;28;3540879;-71
2022/10/10 00:22:59;;;;;;;;;14.67;11.67;;;;;18.41;73.85;100105.69;4599126;28;3525322;-71
2022/10/10 00:25:26;;;;;;;;;16.33;13.67;;;;;18.27;74.36;100103.19;4605399;28;3546176;-71
2022/10/10 00:27:52;;;;;;;;;13.00;11.00;;;;;18.20;74.33;100095.31;4591401;28;3513804;-71
2022/10/10 00:30:19;;;;;;;;;15.00;13.33;;;;;18.19;74.45;100098.84;4623694;28;3535747;-71
2022/10/10 00:32:46;;;;;;;;;14.00;13.00;;;;;18.12;74.41;100102.44;4624220;28;3534696;-71
2022/10/10 00:35:12;;;;;;;;;2.00;0.50;;;;;18.16;74.24;100096.22;4600847;28;2737800;-71
2022/10/10 00:37:38;;;;;;;;;12.33;11.33;;;;;18.24;74.02;100100.56;4612459;28;3529441;-71
2022/10/10 00:40:06;;;;;;;;;10.67;10.33;;;;;18.27;74.19;100091.72;4604566;28;3521092;-71
2022/10/10 00:42:32;;;;;;;;;14.33;12.33;;;;;18.32;74.13;100100.47;4614119;28;3523501;-71
2022/10/10 00:45:19;;;;;;;;;14.67;13.00;;;;;18.31;74.14;100095.22;4602768;28;3537785;-71
2022/10/10 00:47:48;;;;;;;;;16.00;15.00;;;;;18.24;74.58;100086.44;4594725;28;2800311;-71
2022/10/10 00:50:16;;;;;;;;;14.00;13.00;;;;;18.38;74.24;100104.84;4591619;28;3531520;-71
2022/10/10 00:52:42;;;;;;;;;15.00;13.00;;;;;18.24;74.60;100086.44;4591467;28;3529448;-71
2022/10/10 00:55:11;;;;;;;;;11.33;10.33;;;;;18.24;74.52;100097.03;4624865;28;3511713;-71
2022/10/10 00:57:37;;;;;;;;;11.00;10.00;;;;;18.23;74.26;100101.44;4614286;28;3509647;-71
2022/10/10 01:00:04;;;;;;;;;14.67;12.67;;;;;18.21;74.10;100091.78;4621611;28;3524209;-71
2022/10/10 01:02:30;;;;;;;;;13.00;13.00;;;;;18.19;74.37;100098.84;4619578;28;2803442;-71
2022/10/10 01:04:57;;;;;;;;;13.00;12.33;;;;;18.27;74.37;100107.59;4595716;28;2812751;-71
2022/10/10 01:07:26;;;;;;;;;14.33;12.33;;;;;18.28;74.36;100110.22;4619615;28;2807555;-71
2022/10/10 01:09:57;;;;;;;;;16.00;12.00;;;;;18.25;74.49;100088.22;4618907;28;2796117;-72
2022/10/10 01:12:46;;;;;;;;;14.50;13.50;;;;;18.31;74.70;100095.22;4617154;28;2812810;-71
2022/10/10 01:15:16;;;;;;;;;13.67;12.33;;;;;18.33;74.70;100104.03;4563272;28;3528434;-71
2022/10/10 01:17:56;;;;;;;;;14.33;13.33;;;;;18.30;74.70;100081.09;4589759;28;3548193;-71
2022/10/10 01:20:41;;;;;;;;;16.50;14.00;;;;;18.37;74.32;100087.25;4591874;28;2827374;-71
2022/10/10 01:23:35;;;;;;;;;13.67;12.00;;;;;18.29;74.39;100074.09;4591709;28;3544020;-70
2022/10/10 01:26:01;;;;;;;;;14.50;13.50;;;;;18.40;74.76;100093.38;4594993;28;2799258;-71
2022/10/10 01:28:43;;;;;;;;;14.50;13.00;;;;;18.32;74.66;100076.69;4597159;28;2796121;-71
2022/10/10 01:31:12;;;;;;;;;12.00;11.67;;;;;18.44;74.59;100095.09;4592592;28;3537785;-71
2022/10/10 01:33:45;;;;;;;;;14.00;12.00;;;;;18.45;74.61;100095.97;4613596;28;3527353;-70
2022/10/10 01:36:46;;;;;;;;;14.33;13.00;;;;;18.37;74.44;100082.81;4616980;28;3522149;-71
2022/10/10 01:39:30;;;;;;;;;10.67;10.67;;;;;18.45;74.45;100088.91;4632455;28;3503502;-71
2022/10/10 01:42:21;;;;;;;;;13.67;11.67;;;;;18.50;74.37;100099.44;4618095;28;2787882;-71
2022/10/10 01:44:47;;;;;;;;;11.33;10.33;;;;;18.37;74.02;100066.09;4614763;28;3521095;-71
2022/10/10 01:47:14;;;;;;;;;15.00;12.00;;;;;18.50;74.25;100088.84;4617602;28;3531496;-71
2022/10/10 01:49:43;;;;;;;;;11.80;11.80;;;;;18.51;74.17;100098.56;4611738;28;3513815;-72
2022/10/10 01:52:27;;;;;;;;;13.00;11.67;;;;;18.49;74.16;100098.56;4592572;28;3518392;-70
2022/10/10 01:55:14;;;;;;;;;18.00;15.00;;;;;18.59;73.81;100117.00;4635684;28;2799269;-71
2022/10/10 01:57:58;;;;;;;;;11.00;11.00;;;;;18.41;74.66;100116.28;4598740;28;2810715;-71
2022/10/10 02:00:25;;;;;;;;;12.67;11.67;;;;;18.29;74.88;100133.13;4593212;28;2788468;-71
2022/10/10 02:02:57;;;;;;;;;11.67;10.67;;;;;18.28;74.77;100125.19;4616866;28;3521512;-71
2022/10/10 02:05:26;;;;;;;;;15.00;12.00;;;;;18.31;74.31;100113.75;4616569;28;3523170;-71
2022/10/10 02:07:59;;;;;;;;;12.00;11.00;;;;;18.32;74.65;100116.34;4621886;28;2799241;-71
2022/10/10 02:10:32;;;;;;;;;12.00;11.00;;;;;18.24;74.74;100097.94;4595209;28;3524233;-71
2022/10/10 02:13:01;;;;;;;;;12.00;11.50;;;;;18.40;74.89;100106.59;4623336;28;2788846;-71
2022/10/10 02:15:33;;;;;;;;;13.33;13.33;;;;;18.44;74.47;100105.69;4594477;28;3533635;-71
2022/10/10 02:18:04;;;;;;;;;11.67;11.67;;;;;18.36;75.00;100088.97;4592312;28;3515871;-72
2022/10/10 02:20:32;;;;;;;;;11.00;10.67;;;;;18.46;74.63;100114.47;4592272;28;3519016;-71
2022/10/10 02:22:58;;;;;;;;;12.67;12.00;;;;;18.33;75.58;100091.66;4592192;28;3518011;-72
2022/10/10 02:25:34;;;;;;;;;13.60;13.20;;;;;18.37;75.38;100103.97;4608355;28;3537002;-72
2022/10/10 02:28:03;;;;;;;;;15.00;12.33;;;;;18.47;75.42;100105.63;4597966;28;3528388;-71
2022/10/10 02:30:34;;;;;;;;;13.00;13.00;;;;;18.42;75.54;100088.06;4616238;28;3533632;-71
2022/10/10 02:33:03;;;;;;;;;17.00;15.00;;;;;18.51;75.53;100100.34;4633522;28;2483590;-71
2022/10/10 02:35:34;;;;;;;;;18.00;14.00;;;;;18.52;75.84;100100.28;4595874;28;2829473;-71
2022/10/10 02:38:04;;;;;;;;;14.33;14.33;;;;;18.55;75.56;100097.63;4616722;28;3523278;-71
2022/10/10 02:40:34;;;;;;;;;18.00;13.33;;;;;18.55;75.64;100094.13;4629746;28;3540918;-71
2022/10/10 02:43:05;;;;;;;;;14.67;12.00;;;;;18.50;75.73;100096.78;4593988;28;3527393;-71
2022/10/10 02:45:32;;;;;;;;;15.50;14.00;;;;;18.41;75.44;100089.84;4601119;28;2796143;-71
2022/10/10 02:48:02;;;;;;;;;17.33;15.00;;;;;18.37;75.62;100084.59;4584600;28;3545077;-71
2022/10/10 02:50:30;;;;;;;;;13.67;12.33;;;;;18.35;75.48;100078.44;4593502;28;3530471;-71
2022/10/10 02:52:57;;;;;;;;;14.00;13.00;;;;;18.42;75.76;100075.72;4586543;28;3530716;-71
2022/10/10 02:55:24;;;;;;;;;13.00;12.33;;;;;18.46;75.61;100082.75;4575945;28;3527346;-71
2022/10/10 02:57:51;;;;;;;;;13.33;12.33;;;;;18.38;75.33;100067.81;4576928;28;3515887;-71
2022/10/10 03:00:18;;;;;;;;;15.33;14.33;;;;;18.52;75.53;100102.94;4608108;28;3528379;-71
2022/10/10 03:02:45;;;;;;;;;13.00;11.00;;;;;18.54;75.81;100093.22;4575730;28;3536712;-71
2022/10/10 03:05:11;;;;;;;;;13.00;12.00;;;;;18.52;75.54;100076.47;4634059;28;2808631;-71
2022/10/10 03:07:38;;;;;;;;;13.33;13.00;;;;;18.54;75.14;100063.25;4593053;28;3544047;-72
2022/10/10 03:10:06;;;;;;;;;18.33;14.33;;;;;18.62;75.16;100074.63;4618341;28;3554787;-71
2022/10/10 03:12:34;;;;;;;;;16.33;13.33;;;;;18.66;75.18;100079.00;4591866;28;3546095;-72
2022/10/10 03:15:00;;;;;;;;;12.67;12.33;;;;;18.53;75.65;100050.94;4592679;28;3533704;-71
2022/10/10 03:17:27;;;;;;;;;18.67;15.33;;;;;18.63;75.74;100056.09;4632177;28;3542298;-71
2022/10/10 03:19:53;;;;;;;;;15.00;13.00;;;;;18.56;75.89;100048.25;4606072;28;2489848;-71
2022/10/10 03:22:19;;;;;;;;;15.00;14.00;;;;;18.47;75.91;100042.16;4601359;28;2481557;-71
2022/10/10 03:24:45;;;;;;;;;16.00;13.00;;;;;18.57;75.72;100048.22;4605017;28;2481506;-71
2022/10/10 03:27:12;;;;;;;;;20.00;14.00;;;;;18.56;75.84;100045.59;4607431;28;2816952;-71
2022/10/10 03:29:39;;;;;;;;;12.60;12.20;;;;;18.57;75.92;100050.88;4607674;28;3536716;-71
2022/10/10 03:32:05;;;;;;;;;16.40;15.20;;;;;18.51;76.16;100058.88;4616286;28;3545068;-71
2022/10/10 03:34:31;;;;;;;;;17.00;15.00;;;;;18.55;76.00;100071.19;4603131;28;2482018;-71
2022/10/10 03:36:58;;;;;;;;;15.20;13.60;;;;;18.49;75.91;100055.38;4607904;28;3534588;-71
2022/10/10 03:39:24;;;;;;;;;18.00;15.50;;;;;18.65;75.82;100083.41;4634589;28;1820182;-71
2022/10/10 03:41:50;;;;;;;;;17.50;15.00;;;;;18.55;76.09;100076.47;4605155;28;2487831;-71
2022/10/10 03:44:17;;;;;;;;;15.33;13.00;;;;;18.42;76.06;100073.09;4603005;28;3542914;-71
2022/10/10 03:46:44;;;;;;;;;20.50;14.50;;;;;18.21;76.30;100050.34;4604433;28;2821104;-71
2022/10/10 03:49:11;;;;;;;;;13.33;13.33;;;;;18.28;76.62;100078.50;4602606;28;3539852;-71
2022/10/10 03:51:38;;;;;;;;;14.00;12.67;;;;;18.27;76.73;100065.28;4605233;28;3544088;-70
2022/10/10 03:54:04;;;;;;;;;13.00;12.33;;;;;18.20;76.61;100061.81;4610369;28;3536748;-72
2022/10/10 03:56:31;;;;;;;;;16.67;14.00;;;;;18.37;77.01;100084.59;4603899;28;3538847;-71
2022/10/10 03:58:59;;;;;;;;;14.00;13.00;;;;;18.32;76.56;100071.41;4597184;28;3548598;-72
2022/10/10 04:01:26;;;;;;;;;15.00;13.33;;;;;18.44;76.70;100091.56;4590198;28;3530505;-71
2022/10/10 04:03:52;;;;;;;;;17.00;14.50;;;;;18.44;76.85;100081.88;4594380;28;2481502;-71
2022/10/10 04:06:18;;;;;;;;;17.50;14.00;;;;;18.40;76.75;100076.63;4620144;28;2489914;-71
2022/10/10 04:08:45;;;;;;;;;18.67;13.67;;;;;18.49;76.24;100074.75;4617337;28;3533620;-71
2022/10/10 04:11:12;;;;;;;;;20.50;16.00;;;;;18.50;76.55;100083.56;4586250;28;2821119;-72
2022/10/10 04:13:39;;;;;;;;;14.67;13.33;;;;;18.51;76.42;100087.09;4610510;28;3535678;-70
2022/10/10 04:16:06;;;;;;;;;13.00;12.00;;;;;18.51;76.11;100082.69;4604751;28;3524237;-71
2022/10/10 04:18:32;;;;;;;;;18.00;15.50;;;;;18.56;76.18;100090.56;4601666;28;2481489;-71
2022/10/10 04:21:02;;;;;;;;;15.00;15.00;;;;;18.55;76.09;100092.34;4616283;28;2483618;-71
2022/10/10 04:23:27;;;;;;;;;20.00;17.00;;;;;18.55;76.15;100096.75;4588307;28;2481549;-71
2022/10/10 04:25:53;;;;;;;;;19.00;16.00;;;;;18.57;76.20;100094.97;4614847;28;2477430;-71
2022/10/10 04:28:20;;;;;;;;;16.00;15.00;;;;;18.60;76.25;100095.81;4604199;28;2491964;-71
2022/10/10 04:30:46;;;;;;;;;19.00;13.50;;;;;18.47;75.96;100078.31;4597126;28;2801321;-71
2022/10/10 04:33:12;;;;;;;;;18.00;15.00;;;;;18.46;76.30;100084.47;4601682;28;2483605;-71
2022/10/10 04:35:39;;;;;;;;;15.67;15.33;;;;;18.45;76.48;100091.56;4609030;28;3543996;-71
2022/10/10 04:38:06;;;;;;;;;16.00;16.00;;;;;18.48;76.58;100096.81;4597840;28;2487764;-70
2022/10/10 04:40:34;;;;;;;;;14.67;14.00;;;;;18.53;76.60;100106.47;4596038;28;3538169;-71
2022/10/10 04:43:00;;;;;;;;;14.67;14.00;;;;;18.41;76.46;100100.41;4620449;28;2811009;-71
2022/10/10 04:45:27;;;;;;;;;12.67;10.67;;;;;18.46;76.47;100098.59;4613357;28;2787760;-71
2022/10/10 04:47:53;;;;;;;;;18.50;17.00;;;;;18.44;76.39;100096.84;4613425;28;2821178;-71
2022/10/10 04:50:21;;;;;;;;;17.50;15.00;;;;;18.52;76.23;100110.88;4592546;28;2811737;-71
2022/10/10 04:52:48;;;;;;;;;22.00;20.50;;;;;18.41;76.63;100092.47;4593165;28;2831488;-71
2022/10/10 04:55:14;;;;;;;;;19.00;17.00;;;;;18.35;76.33;100089.88;4601587;28;2481586;-71
2022/10/10 04:57:41;;;;;;;;;21.00;17.00;;;;;18.33;76.83;100089.03;4590137;28;2829417;-71
2022/10/10 05:00:08;;;;;;;;;21.00;17.00;;;;;18.34;76.64;100090.75;4605219;28;2485747;-71
2022/10/10 05:02:34;;;;;;;;;15.00;14.00;;;;;18.34;76.56;100097.81;4590495;28;3538839;-71
2022/10/10 05:05:02;;;;;;;;;13.80;12.60;;;;;18.37;76.40;100111.03;4610417;28;3532899;-70
2022/10/10 05:07:28;;;;;;;;;13.80;13.80;;;;;18.34;76.52;100098.69;4594377;28;3531495;-71
2022/10/10 05:09:55;;;;;;;;;14.67;14.00;;;;;18.14;77.41;100100.66;4603175;28;3525247;-71
2022/10/10 05:12:21;;;;;;;;;18.00;13.50;;;;;18.12;77.82;100116.50;4605626;28;2481569;-71
2022/10/10 05:14:48;;;;;;;;;14.60;13.00;;;;;18.08;77.38;100106.84;4609637;28;3539833;-72
2022/10/10 05:17:14;;;;;;;;;15.00;13.00;;;;;18.13;77.44;100118.28;4606857;28;2487885;-71
2022/10/10 05:19:41;;;;;;;;;13.50;13.00;;;;;18.00;76.79;100088.41;4609139;28;2803720;-71
2022/10/10 05:22:07;;;;;;;;;18.00;15.00;;;;;18.13;77.40;100114.78;4595147;28;2489832;-71
2022/10/10 05:24:33;;;;;;;;;17.50;15.50;;;;;18.02;77.87;100107.78;4602633;28;2817944;-71
2022/10/10 05:26:59;;;;;;;;;17.50;17.00;;;;;18.20;77.69;100137.59;4602134;28;2487859;-71
2022/10/10 05:29:25;;;;;;;;;19.50;17.00;;;;;18.26;77.69;100146.38;4604182;28;2489947;-71
2022/10/10 05:31:51;;;;;;;;;17.00;14.00;;;;;18.25;77.31;100151.69;4607744;28;2481522;-71
2022/10/10 05:34:18;;;;;;;;;18.80;17.00;;;;;18.27;77.14;100149.91;4610239;28;3551307;-71
2022/10/10 05:36:44;;;;;;;;;17.00;15.00;;;;;18.26;77.17;100162.25;4606867;28;2481519;-71
2022/10/10 05:39:10;;;;;;;;;17.50;14.00;;;;;18.40;76.98;100190.31;4601249;28;2481553;-71
2022/10/10 05:41:36;;;;;;;;;17.00;17.00;;;;;18.34;77.70;100175.38;4606263;28;2481526;-71
2022/10/10 05:44:03;;;;;;;;;21.00;16.67;;;;;18.29;77.41;100169.28;4609036;28;3541933;-71
2022/10/10 05:46:30;;;;;;;;;16.50;15.50;;;;;18.43;77.12;100177.97;4626407;28;2810716;-71
2022/10/10 05:48:56;;;;;;;;;20.00;18.00;;;;;18.40;76.57;100171.81;4600613;28;2489897;-71
2022/10/10 05:51:22;;;;;;;;;18.00;17.00;;;;;18.46;76.53;100182.34;4599002;28;2482046;-72
2022/10/10 05:53:49;;;;;;;;;18.50;16.00;;;;;18.49;76.75;100193.78;4605211;28;2816945;-71
2022/10/10 05:56:16;;;;;;;;;16.00;14.50;;;;;18.45;76.81;100180.59;4603602;28;2808644;-72
2022/10/10 05:58:43;;;;;;;;;19.00;15.00;;;;;18.54;76.86;100187.56;4597732;28;2487882;-72
2022/10/10 06:01:10;;;;;;;;;18.00;17.33;;;;;18.51;76.67;100187.63;4597355;28;3547515;-72
2022/10/10 06:03:36;;;;;;;;;17.00;15.00;;;;;18.54;76.67;100191.09;4591737;28;2816975;-72
2022/10/10 06:06:03;;;;;;;;;17.33;15.67;;;;;18.44;76.77;100165.63;4605847;28;3539847;-72
2022/10/10 06:08:31;;;;;;;;;17.50;17.00;;;;;18.53;76.80;100173.47;4615475;28;2818026;-72
2022/10/10 06:11:09;;;;;;;;;15.50;15.50;;;;;18.49;76.85;100161.16;4592692;28;2807625;-72
2022/10/10 06:13:37;;;;;;;;;20.33;18.67;;;;;18.48;76.83;100160.31;4596243;28;3566282;-71
2022/10/10 06:16:03;;;;;;;;;21.00;17.50;;;;;18.57;77.27;100180.50;4592593;28;2485661;-72
2022/10/10 06:18:30;;;;;;;;;18.00;16.00;;;;;18.57;77.23;100169.03;4600145;28;2826323;-72
2022/10/10 06:21:00;;;;;;;;;20.00;17.50;;;;;18.52;77.07;100162.91;4605135;28;2829436;-72
2022/10/10 06:23:28;;;;;;;;;25.00;20.67;;;;;18.63;78.48;100183.09;4591668;28;2845194;-72
2022/10/10 06:25:54;;;;;;;;;18.50;17.50;;;;;18.51;78.18;100171.75;4615832;28;2824657;-72
2022/10/10 06:28:21;;;;;;;;;21.00;18.50;;;;;18.55;78.16;100182.28;4599805;28;2826292;-72
2022/10/10 06:30:49;;;;;;;;;18.50;17.50;;;;;18.52;77.90;100170.84;4582064;28;2832589;-72
2022/10/10 06:33:17;;;;;;;;;21.00;18.50;;;;;18.67;77.59;100199.81;4591967;28;2485728;-72
2022/10/10 06:35:46;;;;;;;;;17.00;14.50;;;;;18.70;77.55;100197.13;4609086;28;2814885;-72
2022/10/10 06:38:15;;;;;;;;;25.00;19.00;;;;;18.67;77.94;100199.81;4592723;28;2829444;-72
2022/10/10 06:40:42;;;;;;;;;15.50;14.50;;;;;18.58;77.67;100192.84;4592725;28;2809674;-72
2022/10/10 06:43:11;;;;;;;;;21.33;18.67;;;;;18.62;77.98;100210.44;4598434;28;3561731;-72
2022/10/10 06:45:43;;;;;;;;;18.00;17.67;;;;;18.53;77.64;100191.13;4594476;28;2825370;-71
2022/10/10 06:48:12;;;;;;;;;17.50;15.50;;;;;18.60;77.84;100213.97;4630548;28;2819454;-72
2022/10/10 06:50:38;;;;;;;;;19.67;17.33;;;;;18.59;77.60;100205.16;4595975;28;2823218;-71
2022/10/10 06:53:05;;;;;;;;;18.00;15.00;;;;;18.69;77.41;100221.84;4618026;28;2484076;-71
2022/10/10 06:55:32;;;;;;;;;19.50;17.50;;;;;18.70;77.37;100226.22;4593174;28;2822168;-71
2022/10/10 06:57:59;;;;;;;;;23.33;21.67;;;;;18.64;77.29;100211.31;4606805;28;3574237;-72
2022/10/10 07:00:26;;;;;;;;;20.67;19.33;;;;;18.68;77.07;100222.72;4601680;28;2833997;-72
2022/10/10 07:02:53;;;;;;;;;16.50;15.00;;;;;18.71;77.21;100228.00;4614083;28;2814873;-72
2022/10/10 07:05:20;;;;;;;;;16.00;14.50;;;;;18.79;76.87;100239.44;4590347;28;2803448;-72
2022/10/10 07:07:46;;;;;;;;;18.67;16.00;;;;;18.85;76.93;100238.50;4590940;28;3548197;-72
2022/10/10 07:10:14;;;;;;;;;16.50;15.50;;;;;18.94;77.11;100250.75;4599730;28;2823624;-72
2022/10/10 07:12:42;;;;;;;;;23.33;20.00;;;;;18.96;77.07;100255.19;4575620;28;2839963;-71
2022/10/10 07:15:08;;;;;;;;;22.33;18.00;;;;;18.93;76.65;100255.19;4619013;28;3563817;-71
2022/10/10 07:17:36;;;;;;;;;23.33;20.67;;;;;19.03;76.27;100267.44;4601082;28;2834756;-72
2022/10/10 07:20:03;;;;;;;;;28.67;24.00;;;;;18.55;76.80;100192.00;4619800;28;3585016;-71
2022/10/10 07:22:30;;;;;;;;;21.33;18.33;;;;;18.88;76.87;100259.66;4591064;28;2834751;-71
2022/10/10 07:24:57;;;;;;;;;20.00;17.50;;;;;18.75;76.93;100248.25;4629200;28;2829456;-72
2022/10/10 07:27:24;;;;;;;;;20.50;17.00;;;;;18.86;76.66;100267.59;4603780;28;2827322;-72
2022/10/10 07:29:51;;;;;;;;;20.00;15.50;;;;;18.92;76.83;100277.28;4603738;28;2814264;-72
2022/10/10 07:32:17;;;;;;;;;17.50;15.50;;;;;18.96;77.07;100288.69;4604223;28;2808957;-71
2022/10/10 07:34:44;;;;;;;;;15.00;14.50;;;;;18.86;77.13;100277.28;4603487;28;2809694;-72
2022/10/10 07:37:12;;;;;;;;;21.33;21.33;;;;;18.90;76.78;100272.84;4603371;28;3585656;-71
2022/10/10 07:39:39;;;;;;;;;18.00;16.50;;;;;19.10;76.60;100292.13;4628164;28;2826324;-72
2022/10/10 07:42:06;;;;;;;;;19.00;17.00;;;;;19.26;76.17;100293.72;4599926;28;2820025;-71
2022/10/10 07:44:33;;;;;;;;;20.50;15.00;;;;;19.32;75.68;100273.34;4602763;28;2819067;-71
2022/10/10 07:46:59;;;;;;;;;19.50;17.00;;;;;19.52;75.53;100284.63;4605018;28;2821124;-71
2022/10/10 07:49:26;;;;;;;;;22.00;20.50;;;;;19.65;74.85;100288.88;4605279;28;2842073;-71
2022/10/10 07:51:52;;;;;;;;;17.00;15.50;;;;;19.73;74.64;100288.81;4600653;28;2481581;-71
2022/10/10 07:54:19;;;;;;;;;18.50;14.50;;;;;19.70;74.23;100277.38;4607854;28;2804437;-72
2022/10/10 07:56:46;;;;;;;;;16.50;16.00;;;;;19.82;74.33;100291.38;4599210;28;2812114;-71
2022/10/10 07:59:14;;;;;;;;;18.67;17.00;;;;;19.84;73.96;100280.75;4604670;28;2828383;-72
2022/10/10 08:01:41;;;;;;;;;18.00;17.00;;;;;19.99;74.32;100296.44;4613351;28;2826391;-71
2022/10/10 08:04:06;;;;;;;;;25.00;19.00;;;;;20.03;73.75;100299.94;4601664;28;1886203;-71
2022/10/10 08:06:34;;;;;;;;;23.33;21.33;;;;;19.98;73.66;100288.53;4593542;28;3589827;-72
2022/10/10 08:09:01;;;;;;;;;22.33;18.33;;;;;19.90;73.75;100274.50;4630655;28;3552371;-71
2022/10/10 08:11:28;;;;;;;;;18.67;17.67;;;;;20.01;73.84;100281.41;4607064;28;3563778;-71
2022/10/10 08:13:55;;;;;;;;;16.50;15.50;;;;;19.97;73.55;100269.06;4601838;28;2808644;-72
2022/10/10 08:16:21;;;;;;;;;15.50;14.00;;;;;20.08;73.65;100284.00;4601767;28;2489867;-71
2022/10/10 08:18:48;;;;;;;;;18.67;15.00;;;;;20.01;73.62;100268.13;4594909;28;3548165;-72
2022/10/10 08:21:15;;;;;;;;;16.67;15.67;;;;;20.03;73.86;100286.69;4603650;28;3549268;-71
2022/10/10 08:23:42;;;;;;;;;21.67;18.67;;;;;19.92;74.45;100278.00;4619014;28;3565908;-72
2022/10/10 08:26:11;;;;;;;;;14.50;14.00;;;;;19.99;74.37;100293.78;4595675;28;2802401;-72
2022/10/10 08:28:38;;;;;;;;;16.00;14.67;;;;;20.00;74.08;100277.00;4596251;28;3549255;-73
2022/10/10 08:31:10;;;;;;;;;18.00;16.33;;;;;20.08;73.58;100284.00;4618970;28;3554440;-71
2022/10/10 08:33:37;;;;;;;;;23.00;20.00;;;;;19.92;74.30;100270.06;4582127;28;3578391;-73
2022/10/10 08:36:14;;;;;;;;;17.00;16.00;;;;;19.84;74.47;100263.06;4576581;28;3573201;-71
2022/10/10 08:38:40;;;;;;;;;22.00;17.00;;;;;19.85;74.87;100277.19;4576806;28;3567961;-71
2022/10/10 08:41:17;;;;;;;;;21.33;19.00;;;;;19.81;74.50;100264.88;4585447;28;2834811;-71
2022/10/10 08:43:51;;;;;;;;;19.33;18.00;;;;;19.82;74.39;100253.41;4597878;28;2840374;-71
2022/10/10 08:46:27;;;;;;;;;15.50;14.00;;;;;20.01;73.78;100273.44;4593736;28;2810715;-72
2022/10/10 08:48:57;;;;;;;;;19.67;17.67;;;;;20.25;73.38;100290.81;4585362;28;3573191;-71
2022/10/10 08:51:31;;;;;;;;;16.00;14.50;;;;;20.36;73.11;100293.31;4573161;28;2815460;-71
2022/10/10 08:54:04;;;;;;;;;18.00;16.00;;;;;20.41;72.75;100290.59;4581170;28;2823230;-72
2022/10/10 08:56:33;;;;;;;;;23.33;21.00;;;;;20.56;72.57;100298.31;4560348;28;2840898;-72
2022/10/10 08:59:09;;;;;;;;;15.00;15.00;;;;;20.66;72.10;100315.03;4610085;28;3530559;-72
2022/10/10 09:01:37;;;;;;;;;22.00;19.00;;;;;20.75;71.41;100309.59;4571451;28;2829833;-71
2022/10/10 09:04:07;;;;;;;;;21.00;16.00;;;;;20.80;71.28;100309.50;4599257;28;3575293;-71
2022/10/10 09:06:58;;;;;;;;;22.67;20.00;;;;;20.76;71.75;100292.75;4595769;28;3577375;-71
2022/10/10 09:09:39;;;;;;;;;16.00;13.00;;;;;20.94;71.15;100301.31;4593231;28;2485646;-71
2022/10/10 09:12:34;;;;;;;;;19.50;17.00;;;;;21.05;70.88;100312.66;4590047;28;2828807;-72
2022/10/10 09:15:36;;;;;;;;;23.00;17.33;;;;;21.17;70.79;100317.75;4598596;28;3577332;-71
2022/10/10 09:18:12;;;;;;;;;19.00;17.33;;;;;21.29;70.35;100321.06;4595217;28;3566958;-72
2022/10/10 09:20:51;;;;;;;;;18.33;16.00;;;;;21.42;69.96;100319.94;4602632;28;3549254;-71
2022/10/10 09:23:24;;;;;;;;;20.00;15.00;;;;;21.54;69.55;100311.78;4621404;28;2814894;-71
2022/10/10 09:25:59;;;;;;;;;10.50;10.00;;;;;21.67;67.95;100306.25;4599184;28;2487772;-72
2022/10/10 09:28:32;;;;;;;;;11.00;10.33;;;;;21.88;65.01;100318.22;4602276;28;2787804;-72
2022/10/10 09:31:00;;;;;;;;;13.00;10.00;;;;;22.04;64.07;100320.56;4628184;28;2789924;-70
2022/10/10 09:33:59;;;;;;;;;11.00;10.50;;;;;22.14;64.12;100297.25;4592183;28;2483613;-71
2022/10/10 09:36:32;;;;;;;;;6.60;5.20;;;;;22.40;63.01;100307.38;4630978;28;2739196;-72
2022/10/10 09:39:24;;;;;;;;;9.00;8.00;;;;;22.24;62.69;100240.34;4609194;28;2746142;-71
2022/10/10 09:41:58;;;;;;;;;14.00;11.00;;;;;22.71;62.19;100285.34;4598634;28;3515238;-72
2022/10/10 09:44:24;;;;;;;;;11.00;9.00;;;;;22.99;61.13;100298.00;4618563;28;2778441;-70
2022/10/10 09:46:51;;;;;;;;;9.20;9.20;;;;;23.03;60.95;100279.25;4596651;28;3478377;-73
2022/10/10 09:49:18;;;;;;;;;8.00;7.60;;;;;23.21;60.88;100291.22;4641481;28;3451263;-73
2022/10/10 09:51:46;;;;;;;;;9.67;8.33;;;;;23.50;60.33;100294.91;4632002;28;2752352;-73
2022/10/10 09:54:15;;;;;;;;;8.00;8.00;;;;;23.88;59.73;100302.78;4633093;28;2737808;-72
2022/10/10 09:56:43;;;;;;;;;10.20;9.80;;;;;24.26;60.02;100295.44;4631763;28;2784622;-73
2022/10/10 09:59:36;;;;;;;;;15.00;11.00;;;;;24.55;60.52;100303.44;4595974;28;2481546;-73
2022/10/10 10:02:10;;;;;;;;;16.33;14.33;;;;;24.49;60.69;100287.59;4595115;28;3548185;-73
2022/10/10 10:04:37;;;;;;;;;14.00;13.00;;;;;24.32;61.02;100280.09;4595570;28;2485689;-72
2022/10/10 10:07:33;;;;;;;;;14.33;13.00;;;;;24.56;60.18;100288.28;4614249;28;2800251;-73
2022/10/10 10:10:10;;;;;;;;;11.33;11.00;;;;;24.66;60.27;100263.03;4621448;28;2787779;-73
2022/10/10 10:12:43;;;;;;;;;6.60;6.40;;;;;24.98;55.49;100287.81;4655715;28;2739850;-73
2022/10/10 10:15:31;;;;;;;;;7.60;5.60;;;;;25.12;53.57;100290.00;4614621;28;2746118;-73
2022/10/10 10:18:18;;;;;;;;;7.80;7.00;;;;;25.24;52.94;100286.06;4615189;28;2744031;-72
2022/10/10 10:21:08;;;;;;;;;11.20;8.40;;;;;25.30;53.02;100284.06;4633043;28;2771795;-72
2022/10/10 10:23:48;;;;;;;;;11.00;8.20;;;;;25.45;53.38;100296.03;4634457;28;2769030;-72
2022/10/10 10:26:23;;;;;;;;;10.67;8.00;;;;;25.49;53.40;100305.69;4618676;28;2759003;-72
2022/10/10 10:28:51;;;;;;;;;6.00;6.00;;;;;25.50;51.60;100304.72;4638060;28;2727369;-72
2022/10/10 10:31:30;;;;;;;;;11.20;9.00;;;;;25.47;52.17;100296.84;4656404;28;2760767;-72
2022/10/10 10:34:26;;;;;;;;;9.20;7.20;;;;;25.51;50.52;100285.09;4616935;28;2761723;-72
2022/10/10 10:37:08;;;;;;;;;7.00;6.00;;;;;25.56;50.20;100295.63;4635017;28;2736720;-72
2022/10/10 10:39:55;;;;;;;;;10.00;6.00;;;;;25.60;49.86;100302.59;4612214;28;2762824;-72
2022/10/10 10:42:51;;;;;;;;;9.67;7.67;;;;;25.62;49.89;100300.75;4636096;28;2752525;-73
2022/10/10 10:45:33;;;;;;;;;7.00;7.00;;;;;25.62;49.57;100298.06;4605885;28;2737830;-72
2022/10/10 10:48:28;;;;;;;;;9.00;7.40;;;;;25.62;49.10;100299.88;4638221;28;2744023;-72
2022/10/10 10:50:59;;;;;;;;;6.80;5.40;;;;;25.65;49.18;100307.81;4635746;28;2736764;-72
2022/10/10 10:53:26;;;;;;;;;5.60;5.60;;;;;25.65;49.63;100308.69;4653652;28;2732602;-72
2022/10/10 10:55:57;;;;;;;;;7.83;7.00;;;;;25.75;48.88;100306.53;4644176;28;2729511;-72
2022/10/10 10:58:49;;;;;;;;;6.00;6.00;;;;;25.87;49.23;100308.75;4614298;28;2730518;-72
2022/10/10 11:01:44;;;;;;;;;7.00;6.33;;;;;25.90;49.32;100305.97;4636680;28;2732609;-72
2022/10/10 11:04:47;;;;;;;;;8.00;7.00;;;;;25.95;48.92;100295.13;4634968;28;2746146;-71
2022/10/10 11:07:19;;;;;;;;;6.80;5.80;;;;;26.18;48.84;100304.94;4616787;28;2741933;-72
2022/10/10 11:09:54;;;;;;;;;8.00;7.33;;;;;26.17;48.99;100311.25;4611862;28;2748218;-74